PWSweather.com
Personal Weather Stations
Station Observations
RODOLIVOS
Serres, Rodolivos SerresGR 62041

SerresRodolivos SerresGR 62041

Lat: 40.920725, Lon: 23.975814

Elevation: 1161

Station Type: Davis Vantage Vue

http://rodolivos-weather.gr/

High Low Average
Temperature 41.0°F5.0°F 36.4°F2.4°F 38.7°F3.7°F
Dew Point 41.0°F5.0°F 34.6°F1.4°F 38.0°F3.3°F
Winds 3.5 mph -5.6 mph - Calm Calm 1.0 mph 1.6 mph
Wind Gusts 8.1 mph13.0 mph -- 2.5 mph4.0 mph
Humidity 100% 91% 97%
Pressure 30.11 in1019.60 in 30.07 in1018.30 in -
Precipitation 0.01 in0.30 in - -
Hour Temp Dew Point Humidity Winds Wind Gusts Pressure Precip Precip Rate Daily Precip Total
07:00 AM 37.0°F2.8°C 34.6°F1.4°C 91% 1.2 mph NE1.9 kmh NE 2.3 mph3.7 kmh 30.07 in1018.3 mb - 0.00 in0.0 mm 0.02 in0.5 mm
07:10 AM 37.0°F2.8°C 34.6°F1.4°C 91% 2.3 mph NNE3.7 kmh NNE 6.9 mph11.1 kmh 30.07 in1018.3 mb - 0.00 in0.0 mm 0.02 in0.5 mm
07:20 AM 37.0°F2.8°C 34.9°F1.6°C 92% 3.5 mph NNE5.6 kmh NNE 5.8 mph9.3 kmh 30.07 in1018.3 mb - 0.00 in0.0 mm 0.02 in0.5 mm
07:30 AM 37.0°F2.8°C 34.9°F1.6°C 92% 3.5 mph NE5.6 kmh NE 4.6 mph7.4 kmh 30.08 in1018.6 mb - 0.00 in0.0 mm 0.02 in0.5 mm
07:40 AM 37.0°F2.8°C 34.9°F1.6°C 92% 3.5 mph N5.6 kmh N 6.9 mph11.1 kmh 30.08 in1018.6 mb - 0.00 in0.0 mm 0.02 in0.5 mm
07:50 AM 36.9°F2.7°C 34.8°F1.6°C 92% 1.2 mph NE1.9 kmh NE 2.3 mph3.7 kmh 30.08 in1018.6 mb - 0.00 in0.0 mm 0.02 in0.5 mm
08:00 AM 36.9°F2.7°C 35.0°F1.7°C 93% 1.2 mph NE1.9 kmh NE 2.3 mph3.7 kmh 30.08 in1018.6 mb - 0.01 in0.3 mm 0.02 in0.5 mm
08:10 AM 36.9°F2.7°C 35.0°F1.7°C 93% 2.3 mph NNE3.7 kmh NNE 3.5 mph5.6 kmh 30.08 in1018.6 mb - 0.00 in0.0 mm 0.02 in0.5 mm
08:20 AM 36.9°F2.7°C 35.1°F1.7°C 93% 1.2 mph ENE1.9 kmh ENE 5.8 mph9.3 kmh 30.09 in1019.0 mb - 0.00 in0.0 mm 0.02 in0.5 mm
08:30 AM 36.8°F2.7°C 35.0°F1.7°C 93% Calm Calm 2.3 mph3.7 kmh 30.09 in1019.0 mb - 0.00 in0.0 mm 0.02 in0.5 mm
08:40 AM 36.8°F2.7°C 35.0°F1.7°C 93% Calm Calm 2.3 mph3.7 kmh 30.10 in1019.3 mb - 0.00 in0.0 mm 0.02 in0.5 mm
08:50 AM 36.6°F2.6°C 34.8°F1.6°C 93% 1.2 mph ENE1.9 kmh ENE 3.5 mph5.6 kmh 30.10 in1019.3 mb - 0.00 in0.0 mm 0.02 in0.5 mm
09:00 AM 36.4°F2.4°C 34.6°F1.4°C 93% 2.3 mph NNE3.7 kmh NNE 5.8 mph9.3 kmh 30.10 in1019.3 mb - 0.00 in0.0 mm 0.02 in0.5 mm
09:10 AM 36.5°F2.5°C 35.0°F1.7°C 94% 2.3 mph NNE3.7 kmh NNE 3.5 mph5.6 kmh 30.09 in1019.0 mb - 0.00 in0.0 mm 0.02 in0.5 mm
09:20 AM 36.8°F2.7°C 35.2°F1.8°C 94% 2.3 mph NNE3.7 kmh NNE 3.5 mph5.6 kmh 30.09 in1019.0 mb - 0.00 in0.0 mm 0.02 in0.5 mm
09:30 AM 36.9°F2.7°C 35.3°F1.8°C 94% 2.3 mph NE3.7 kmh NE 3.5 mph5.6 kmh 30.10 in1019.3 mb - 0.00 in0.0 mm 0.02 in0.5 mm
09:40 AM 37.1°F2.8°C 35.5°F1.9°C 94% 3.5 mph NNE5.6 kmh NNE 5.8 mph9.3 kmh 30.10 in1019.3 mb - 0.00 in0.0 mm 0.02 in0.5 mm
09:50 AM 37.3°F2.9°C 35.7°F2.1°C 94% 2.3 mph NNE3.7 kmh NNE 3.5 mph5.6 kmh 30.10 in1019.3 mb - 0.00 in0.0 mm 0.02 in0.5 mm
10:00 AM 37.3°F2.9°C 35.7°F2.1°C 94% 3.5 mph NE5.6 kmh NE 8.1 mph13.0 kmh 30.10 in1019.3 mb - 0.00 in0.0 mm 0.02 in0.5 mm
10:10 AM 37.2°F2.9°C 35.6°F2.0°C 94% 2.3 mph NE3.7 kmh NE 3.5 mph5.6 kmh 30.11 in1019.6 mb - 0.00 in0.0 mm 0.02 in0.5 mm
10:20 AM 37.0°F2.8°C 35.4°F1.9°C 94% 2.3 mph NNE3.7 kmh NNE 6.9 mph11.1 kmh 30.11 in1019.6 mb - 0.00 in0.0 mm 0.02 in0.5 mm
10:30 AM 37.1°F2.8°C 35.5°F1.9°C 94% 2.3 mph NE3.7 kmh NE 4.6 mph7.4 kmh 30.11 in1019.6 mb - 0.00 in0.0 mm 0.02 in0.5 mm
10:40 AM 37.3°F2.9°C 35.7°F2.1°C 94% 1.2 mph NE1.9 kmh NE 2.3 mph3.7 kmh 30.11 in1019.6 mb - 0.00 in0.0 mm 0.02 in0.5 mm
10:50 AM 37.3°F2.9°C 35.8°F2.1°C 94% 1.2 mph NE1.9 kmh NE 6.9 mph11.1 kmh 30.11 in1019.6 mb - 0.00 in0.0 mm 0.02 in0.5 mm
11:00 AM 37.5°F3.1°C 36.2°F2.3°C 95% 2.3 mph NNE3.7 kmh NNE 3.5 mph5.6 kmh 30.11 in1019.6 mb - 0.00 in0.0 mm 0.02 in0.5 mm
11:10 AM 37.5°F3.1°C 36.2°F2.3°C 95% Calm Calm 2.3 mph3.7 kmh 30.11 in1019.6 mb - 0.00 in0.0 mm 0.02 in0.5 mm
11:20 AM 37.5°F3.1°C 36.2°F2.3°C 95% Calm Calm 1.2 mph1.9 kmh 30.11 in1019.6 mb - 0.00 in0.0 mm 0.02 in0.5 mm
11:30 AM 37.5°F3.1°C 36.2°F2.3°C 95% Calm Calm 1.2 mph1.9 kmh 30.10 in1019.3 mb - 0.00 in0.0 mm 0.02 in0.5 mm
11:40 AM 37.4°F3.0°C 36.1°F2.3°C 95% Calm Calm 1.2 mph1.9 kmh 30.10 in1019.3 mb - 0.00 in0.0 mm 0.02 in0.5 mm
11:50 AM 37.4°F3.0°C 36.1°F2.3°C 95% Calm Calm 3.5 mph5.6 kmh 30.09 in1019.0 mb - 0.00 in0.0 mm 0.02 in0.5 mm
12:00 PM 37.6°F3.1°C 36.3°F2.4°C 95% 2.3 mph NNE3.7 kmh NNE 3.5 mph5.6 kmh 30.09 in1019.0 mb - 0.00 in0.0 mm 0.02 in0.5 mm
12:10 PM 38.1°F3.4°C 36.8°F2.7°C 95% 2.3 mph NE3.7 kmh NE 4.6 mph7.4 kmh 30.09 in1019.0 mb - 0.00 in0.0 mm 0.02 in0.5 mm
12:20 PM 38.4°F3.6°C 37.1°F2.8°C 95% 2.3 mph NE3.7 kmh NE 3.5 mph5.6 kmh 30.09 in1019.0 mb - 0.00 in0.0 mm 0.02 in0.5 mm
12:30 PM 38.5°F3.6°C 37.2°F2.9°C 95% Calm Calm 4.6 mph7.4 kmh 30.09 in1019.0 mb - 0.00 in0.0 mm 0.02 in0.5 mm
12:40 PM 38.4°F3.6°C 37.1°F2.8°C 95% 1.2 mph NE1.9 kmh NE 2.3 mph3.7 kmh 30.09 in1019.0 mb - 0.00 in0.0 mm 0.02 in0.5 mm
12:50 PM 38.3°F3.5°C 37.0°F2.8°C 95% 2.3 mph NE3.7 kmh NE 5.8 mph9.3 kmh 30.09 in1019.0 mb - 0.00 in0.0 mm 0.02 in0.5 mm
01:00 PM 38.4°F3.6°C 37.1°F2.8°C 95% 1.2 mph NE1.9 kmh NE 4.6 mph7.4 kmh 30.09 in1019.0 mb - 0.00 in0.0 mm 0.02 in0.5 mm
01:10 PM 38.6°F3.7°C 37.3°F2.9°C 95% Calm Calm 3.5 mph5.6 kmh 30.09 in1019.0 mb - 0.00 in0.0 mm 0.02 in0.5 mm
01:20 PM 38.9°F3.8°C 37.6°F3.1°C 95% 1.2 mph ENE1.9 kmh ENE 5.8 mph9.3 kmh 30.09 in1019.0 mb - 0.00 in0.0 mm 0.02 in0.5 mm
01:30 PM 39.3°F4.1°C 39.3°F4.1°C 100% 2.3 mph NE3.7 kmh NE 4.6 mph7.4 kmh 30.09 in1019.0 mb - 0.00 in0.0 mm 0.02 in0.5 mm
01:40 PM 39.6°F4.2°C 39.6°F4.2°C 100% 1.2 mph NE1.9 kmh NE 3.5 mph5.6 kmh 30.08 in1018.6 mb - 0.00 in0.0 mm 0.02 in0.5 mm
01:50 PM 39.9°F4.4°C 39.9°F4.4°C 100% Calm Calm 2.3 mph3.7 kmh 30.08 in1018.6 mb - 0.00 in0.0 mm 0.02 in0.5 mm
02:00 PM 39.9°F4.4°C 39.9°F4.4°C 100% Calm Calm -- 30.08 in1018.6 mb - 0.00 in0.0 mm 0.02 in0.5 mm
02:10 PM 39.9°F4.4°C 39.9°F4.4°C 100% Calm Calm -- 30.08 in1018.6 mb - 0.00 in0.0 mm 0.02 in0.5 mm
02:20 PM 40.0°F4.4°C 40.0°F4.4°C 100% Calm Calm 2.3 mph3.7 kmh 30.08 in1018.6 mb - 0.00 in0.0 mm 0.02 in0.5 mm
02:30 PM 39.9°F4.4°C 39.9°F4.4°C 100% Calm Calm 2.3 mph3.7 kmh 30.08 in1018.6 mb - 0.00 in0.0 mm 0.02 in0.5 mm
02:40 PM 40.0°F4.4°C 40.0°F4.4°C 100% Calm Calm -- 30.08 in1018.6 mb - 0.00 in0.0 mm 0.02 in0.5 mm
02:50 PM 40.0°F4.4°C 40.0°F4.4°C 100% Calm Calm 1.2 mph1.9 kmh 30.08 in1018.6 mb - 0.00 in0.0 mm 0.02 in0.5 mm
03:00 PM 40.0°F4.4°C 40.0°F4.4°C 100% Calm Calm -- 30.08 in1018.6 mb - 0.00 in0.0 mm 0.02 in0.5 mm
03:10 PM 39.9°F4.4°C 39.9°F4.4°C 100% Calm Calm 1.2 mph1.9 kmh 30.08 in1018.6 mb - 0.00 in0.0 mm 0.02 in0.5 mm
03:20 PM 39.6°F4.2°C 39.6°F4.2°C 100% Calm Calm 2.3 mph3.7 kmh 30.08 in1018.6 mb - 0.00 in0.0 mm 0.02 in0.5 mm
03:30 PM 39.5°F4.2°C 39.5°F4.2°C 100% Calm Calm 1.2 mph1.9 kmh 30.08 in1018.6 mb - 0.00 in0.0 mm 0.02 in0.5 mm
03:40 PM 39.4°F4.1°C 39.4°F4.1°C 100% Calm Calm 1.2 mph1.9 kmh 30.09 in1019.0 mb - 0.00 in0.0 mm 0.02 in0.5 mm
03:50 PM 39.4°F4.1°C 39.4°F4.1°C 100% Calm Calm -- 30.09 in1019.0 mb - 0.00 in0.0 mm 0.02 in0.5 mm
04:00 PM 39.4°F4.1°C 39.4°F4.1°C 100% Calm Calm -- 30.09 in1019.0 mb - 0.00 in0.0 mm 0.02 in0.5 mm
04:10 PM 39.3°F4.1°C 39.3°F4.1°C 100% Calm Calm -- 30.09 in1019.0 mb - 0.00 in0.0 mm 0.02 in0.5 mm
04:20 PM 39.4°F4.1°C 39.4°F4.1°C 100% Calm Calm -- 30.09 in1019.0 mb - 0.00 in0.0 mm 0.02 in0.5 mm
04:30 PM 39.4°F4.1°C 39.4°F4.1°C 100% Calm Calm 1.2 mph1.9 kmh 30.09 in1019.0 mb - 0.00 in0.0 mm 0.02 in0.5 mm
04:40 PM 39.4°F4.1°C 39.4°F4.1°C 100% Calm Calm -- 30.09 in1019.0 mb - 0.00 in0.0 mm 0.02 in0.5 mm
04:50 PM 39.3°F4.1°C 39.3°F4.1°C 100% Calm Calm 1.2 mph1.9 kmh 30.08 in1018.6 mb - 0.00 in0.0 mm 0.02 in0.5 mm
05:00 PM 39.4°F4.1°C 39.4°F4.1°C 100% Calm Calm -- 30.08 in1018.6 mb - 0.00 in0.0 mm 0.02 in0.5 mm
05:10 PM 39.2°F4.0°C 39.2°F4.0°C 100% Calm Calm -- 30.09 in1019.0 mb - 0.00 in0.0 mm 0.02 in0.5 mm
05:20 PM 39.1°F3.9°C 39.1°F3.9°C 100% 1.2 mph NNE1.9 kmh NNE 2.3 mph3.7 kmh 30.08 in1018.6 mb - 0.00 in0.0 mm 0.02 in0.5 mm
05:30 PM 39.2°F4.0°C 39.2°F4.0°C 100% Calm Calm 2.3 mph3.7 kmh 30.09 in1019.0 mb - 0.00 in0.0 mm 0.02 in0.5 mm
05:40 PM 39.1°F3.9°C 39.1°F3.9°C 100% 1.2 mph NE1.9 kmh NE 3.5 mph5.6 kmh 30.08 in1018.6 mb - 0.00 in0.0 mm 0.02 in0.5 mm
07:00 PM 39.9°F4.4°C 39.9°F4.4°C 100% 1.2 mph NNE1.9 kmh NNE 3.5 mph5.6 kmh 30.09 in1019.0 mb - 0.00 in0.0 mm 0.02 in0.5 mm
07:10 PM 39.9°F4.4°C 39.9°F4.4°C 100% 2.3 mph NE3.7 kmh NE 3.5 mph5.6 kmh 30.09 in1019.0 mb - 0.00 in0.0 mm 0.02 in0.5 mm
07:20 PM 39.9°F4.4°C 39.9°F4.4°C 100% 1.2 mph NE1.9 kmh NE 1.2 mph1.9 kmh 30.09 in1019.0 mb - 0.00 in0.0 mm 0.02 in0.5 mm
07:30 PM 39.9°F4.4°C 39.9°F4.4°C 100% 1.2 mph NE1.9 kmh NE 3.5 mph5.6 kmh 30.09 in1019.0 mb - 0.00 in0.0 mm 0.02 in0.5 mm
07:40 PM 40.1°F4.5°C 40.1°F4.5°C 100% 1.2 mph N1.9 kmh N 3.5 mph5.6 kmh 30.09 in1019.0 mb - 0.00 in0.0 mm 0.02 in0.5 mm
07:50 PM 40.3°F4.6°C 40.3°F4.6°C 100% Calm Calm -- 30.10 in1019.3 mb - 0.00 in0.0 mm 0.02 in0.5 mm
08:00 PM 40.1°F4.5°C 40.1°F4.5°C 100% Calm Calm -- 30.10 in1019.3 mb - 0.00 in0.0 mm 0.02 in0.5 mm
08:10 PM 40.5°F4.7°C 40.5°F4.7°C 100% Calm Calm 2.3 mph3.7 kmh 30.10 in1019.3 mb - 0.00 in0.0 mm 0.02 in0.5 mm
08:20 PM 40.9°F4.9°C 40.9°F4.9°C 100% Calm Calm -- 30.10 in1019.3 mb - 0.00 in0.0 mm 0.02 in0.5 mm
08:30 PM 40.9°F4.9°C 40.9°F4.9°C 100% Calm Calm -- 30.10 in1019.3 mb - 0.00 in0.0 mm 0.02 in0.5 mm
08:40 PM 41.0°F5.0°C 41.0°F5.0°C 100% Calm Calm -- 30.10 in1019.3 mb - 0.00 in0.0 mm 0.02 in0.5 mm
08:50 PM 40.9°F4.9°C 40.9°F4.9°C 100% Calm Calm -- 30.10 in1019.3 mb - 0.00 in0.0 mm 0.02 in0.5 mm
09:00 PM 40.8°F4.9°C 40.8°F4.9°C 100% Calm Calm -- 30.10 in1019.3 mb - 0.00 in0.0 mm 0.02 in0.5 mm
09:10 PM 40.7°F4.8°C 40.7°F4.8°C 100% Calm Calm -- 30.10 in1019.3 mb - 0.00 in0.0 mm 0.02 in0.5 mm
09:20 PM 40.6°F4.8°C 40.6°F4.8°C 100% Calm Calm 2.3 mph3.7 kmh 30.09 in1019.0 mb - 0.00 in0.0 mm 0.02 in0.5 mm
09:30 PM 40.2°F4.6°C 40.2°F4.6°C 100% 1.2 mph NNE1.9 kmh NNE 1.2 mph1.9 kmh 30.09 in1019.0 mb - 0.00 in0.0 mm 0.02 in0.5 mm
09:40 PM 39.9°F4.4°C 39.9°F4.4°C 100% 2.3 mph N3.7 kmh N 4.6 mph7.4 kmh 30.10 in1019.3 mb - 0.00 in0.0 mm 0.02 in0.5 mm
09:50 PM 39.6°F4.2°C 39.6°F4.2°C 100% Calm Calm -- 30.10 in1019.3 mb - 0.00 in0.0 mm 0.02 in0.5 mm
10:00 PM 39.4°F4.1°C 39.4°F4.1°C 100% Calm Calm 1.2 mph1.9 kmh 30.10 in1019.3 mb - 0.00 in0.0 mm 0.02 in0.5 mm
10:10 PM 39.4°F4.1°C 39.4°F4.1°C 100% Calm Calm -- 30.09 in1019.0 mb - 0.00 in0.0 mm 0.02 in0.5 mm
10:20 PM 39.3°F4.1°C 39.3°F4.1°C 100% 1.2 mph NE1.9 kmh NE 2.3 mph3.7 kmh 30.09 in1019.0 mb - 0.00 in0.0 mm 0.02 in0.5 mm
10:30 PM 39.3°F4.1°C 39.3°F4.1°C 100% Calm Calm -- 30.09 in1019.0 mb - 0.00 in0.0 mm 0.02 in0.5 mm
10:40 PM 39.7°F4.3°C 39.7°F4.3°C 100% 2.3 mph NE3.7 kmh NE 4.6 mph7.4 kmh 30.09 in1019.0 mb - 0.00 in0.0 mm 0.02 in0.5 mm